Time;durP1;ratioP1;P1;durP2;ratioP2;P2;SDS_P1;SDS_P2;PMS_P1;PMS_P2;Temp;Humidity;BMP_temperature;BMP_pressure;BME280_temperature;BME280_humidity;BME280_pressure;Samples;Min_cycle;Max_cycle;Signal;HPM_P1;HPM_P2
2022/03/29 00:02:11;;;;;;;;;;;;;;;4.18;84.55;100047.75;5053092;28;1949;-58
2022/03/29 00:04:37;;;;;;;;;;;;;;;4.23;84.27;100050.25;5053044;28;855;-58
2022/03/29 00:07:04;;;;;;;;;;;;;;;4.25;83.97;100037.78;5052947;28;913;-58
2022/03/29 00:09:31;;;;;;;;;;;;;;;4.28;84.02;100047.22;5053036;28;831;-58
2022/03/29 00:11:58;;;;;;;;;;;;;;;4.30;83.92;100037.50;5052942;28;921;-58
2022/03/29 00:14:24;;;;;;;;;;;;;;;4.35;83.88;100039.19;5052785;28;893;-58
2022/03/29 00:16:53;;;;;;;;;;;;;;;4.40;83.51;100025.25;5052118;28;826;-58
2022/03/29 00:19:20;;;;;;;;;;;;;;;4.44;83.40;100019.88;5052709;28;882;-58
2022/03/29 00:21:46;;;;;;;;;;;;;;;4.49;82.88;100022.31;5052654;28;1886;-58
2022/03/29 00:24:13;;;;;;;;;;;;;;;4.53;82.97;100014.19;5052843;28;983;-58
2022/03/29 00:26:39;;;;;;;;;;;;;;;4.56;82.87;100011.53;5052471;28;1600;-58
2022/03/29 00:29:08;;;;;;;;;;;;;;;4.58;82.40;99992.00;5052922;28;791;-58
2022/03/29 00:31:33;;;;;;;;;;;;;;;4.60;82.70;99995.97;5052459;28;926;-58
2022/03/29 00:34:00;;;;;;;;;;;;;;;4.61;82.40;99994.00;5052588;28;877;-58
2022/03/29 00:36:27;;;;;;;;;;;;;;;4.58;82.32;99992.78;5052410;28;953;-58
2022/03/29 00:38:54;;;;;;;;;;;;;;;4.58;82.06;99981.84;5052627;28;950;-58
2022/03/29 00:41:21;;;;;;;;;;;;;;;4.57;82.34;99985.75;5052296;28;862;-58
2022/03/29 00:43:47;;;;;;;;;;;;;;;4.54;81.98;99985.66;5052434;28;1910;-58
2022/03/29 00:46:14;;;;;;;;;;;;;;;4.56;82.14;99977.88;5052178;28;926;-58
2022/03/29 00:48:40;;;;;;;;;;;;;;;4.61;82.42;99975.66;5052426;28;882;-58
2022/03/29 00:51:08;;;;;;;;;;;;;;;4.68;82.24;99983.25;5052191;28;799;-59
2022/03/29 00:53:35;;;;;;;;;;;;;;;4.70;82.13;99979.00;5052129;28;877;-58
2022/03/29 00:56:02;;;;;;;;;;;;;;;4.75;82.01;99974.38;5052067;28;945;-58
2022/03/29 00:58:30;;;;;;;;;;;;;;;4.76;81.88;99974.03;5052097;28;820;-58
2022/03/29 01:01:01;;;;;;;;;;;;;;;4.76;82.06;99967.75;5051986;28;851;-58
2022/03/29 01:03:28;;;;;;;;;;;;;;;4.81;81.83;99956.53;5051770;28;1889;-58
2022/03/29 01:05:55;;;;;;;;;;;;;;;4.89;81.73;99952.78;5051995;28;811;-58
2022/03/29 01:08:24;;;;;;;;;;;;;;;4.93;81.57;99947.34;5051672;28;885;-58
2022/03/29 01:10:51;;;;;;;;;;;;;;;4.96;81.45;99941.97;5051736;28;950;-58
2022/03/29 01:13:18;;;;;;;;;;;;;;;5.00;81.44;99937.34;5051742;28;906;-58
2022/03/29 01:15:45;;;;;;;;;;;;;;;5.05;81.31;99942.53;5051868;28;1047;-58
2022/03/29 01:18:13;;;;;;;;;;;;;;;5.09;80.95;99945.34;5051713;28;889;-58
2022/03/29 01:20:42;;;;;;;;;;;;;;;5.18;81.08;99945.09;5051737;28;873;-58
2022/03/29 01:23:09;;;;;;;;;;;;;;;5.33;80.42;99938.72;5051628;28;1890;-57
2022/03/29 01:25:38;;;;;;;;;;;;;;;5.38;79.98;99929.44;5051567;28;1207;-58
2022/03/29 01:28:06;;;;;;;;;;;;;;;5.45;79.42;99927.59;5051637;28;819;-58
2022/03/29 01:30:33;;;;;;;;;;;;;;;5.56;79.23;99918.78;5051476;28;819;-58
2022/03/29 01:33:00;;;;;;;;;;;;;;;5.58;79.17;99922.72;5051459;28;967;-58
2022/03/29 01:35:27;;;;;;;;;;;;;;;5.60;78.99;99908.66;5051764;28;831;-58
2022/03/29 01:37:55;;;;;;;;;;;;;;;5.61;78.78;99919.28;5051515;28;851;-58
2022/03/29 01:40:23;;;;;;;;;;;;;;;5.53;78.79;99904.66;5051795;28;799;-58
2022/03/29 01:42:51;;;;;;;;;;;;;;;5.42;78.50;99909.16;5051636;28;1985;-58
2022/03/29 01:45:18;;;;;;;;;;;;;;;5.21;78.95;99900.56;5050357;28;919;-58
2022/03/29 01:47:44;;;;;;;;;;;;;;;5.00;79.34;99898.22;5051558;28;838;-58
2022/03/29 01:50:12;;;;;;;;;;;;;;;4.93;79.80;99898.88;5051657;28;878;-58
2022/03/29 01:52:45;;;;;;;;;;;;;;;4.94;80.14;99905.13;5051443;28;874;-58
2022/03/29 01:55:11;;;;;;;;;;;;;;;4.95;80.28;99896.56;5051310;28;903;-58
2022/03/29 01:57:38;;;;;;;;;;;;;;;4.96;80.27;99900.88;5051324;28;822;-58
2022/03/29 02:02:51;;;;;;;;;;;;;;;4.87;80.18;99889.34;5051494;28;1957;-58
2022/03/29 02:05:17;;;;;;;;;;;;;;;4.89;80.32;99884.31;5051282;28;806;-58
2022/03/29 02:07:44;;;;;;;;;;;;;;;4.94;80.43;99875.78;5051075;28;929;-58
2022/03/29 02:10:14;;;;;;;;;;;;;;;4.98;80.13;99876.66;5051098;28;885;-58
2022/03/29 02:12:41;;;;;;;;;;;;;;;4.97;79.81;99869.59;5051206;28;902;-58
2022/03/29 02:15:08;;;;;;;;;;;;;;;4.94;80.29;99878.53;5051211;28;858;-58
2022/03/29 02:17:35;;;;;;;;;;;;;;;4.96;79.88;99868.00;5051358;28;838;-58
2022/03/29 02:20:02;;;;;;;;;;;;;;;4.95;80.21;99865.63;5053861;28;897;-58
2022/03/29 02:22:29;;;;;;;;;;;;;;;4.89;80.22;99867.88;5054928;28;1941;-58
2022/03/29 02:24:55;;;;;;;;;;;;;;;4.78;80.57;99870.41;5054889;28;1357;-58
2022/03/29 02:27:22;;;;;;;;;;;;;;;4.69;80.47;99872.56;5054898;28;886;-58
2022/03/29 02:29:49;;;;;;;;;;;;;;;4.59;81.29;99865.72;5054905;28;835;-58
2022/03/29 02:32:16;;;;;;;;;;;;;;;4.57;81.24;99865.28;5055132;28;877;-58
2022/03/29 02:34:45;;;;;;;;;;;;;;;4.67;81.48;99864.72;5054832;28;870;-58
2022/03/29 02:37:12;;;;;;;;;;;;;;;4.77;80.97;99862.53;5054581;28;954;-58
2022/03/29 02:39:38;;;;;;;;;;;;;;;4.85;80.79;99859.59;5054884;28;1036;-58
2022/03/29 02:42:06;;;;;;;;;;;;;;;4.89;80.87;99856.91;5054581;28;1914;-58
2022/03/29 02:44:33;;;;;;;;;;;;;;;4.88;80.25;99850.63;5054568;28;835;-58
2022/03/29 02:46:59;;;;;;;;;;;;;;;4.84;80.19;99848.97;5054586;28;775;-58
2022/03/29 02:49:25;;;;;;;;;;;;;;;4.85;80.25;99848.63;5054578;28;783;-58
2022/03/29 02:51:52;;;;;;;;;;;;;;;4.83;80.27;99852.88;5054406;28;854;-58
2022/03/29 02:54:19;;;;;;;;;;;;;;;4.86;80.34;99846.66;5054430;28;896;-58
2022/03/29 02:56:46;;;;;;;;;;;;;;;4.89;80.07;99846.75;5054684;28;846;-58
2022/03/29 02:59:13;;;;;;;;;;;;;;;5.00;79.93;99830.50;5054407;28;803;-58
2022/03/29 03:01:40;;;;;;;;;;;;;;;5.18;79.37;99836.28;5054383;28;927;-58
2022/03/29 03:04:07;;;;;;;;;;;;;;;5.23;78.95;99830.53;5054320;28;1939;-58
2022/03/29 03:06:34;;;;;;;;;;;;;;;5.20;78.75;99830.44;5054146;28;901;-58
2022/03/29 03:09:02;;;;;;;;;;;;;;;5.02;78.94;99833.66;5053988;28;987;-58
2022/03/29 03:11:28;;;;;;;;;;;;;;;4.85;79.26;99829.44;5054097;28;893;-58
2022/03/29 03:13:55;;;;;;;;;;;;;;;4.74;79.48;99833.13;5054018;28;870;-58
2022/03/29 03:16:21;;;;;;;;;;;;;;;4.64;79.96;99840.00;5053881;28;874;-58
2022/03/29 03:18:48;;;;;;;;;;;;;;;4.56;80.20;99841.78;5054173;28;842;-58
2022/03/29 03:21:15;;;;;;;;;;;;;;;4.50;80.33;99833.09;5053999;28;901;-58
2022/03/29 03:23:42;;;;;;;;;;;;;;;4.57;80.09;99840.66;5053690;28;1939;-58
2022/03/29 03:26:08;;;;;;;;;;;;;;;4.55;80.58;99834.75;5053770;28;1415;-58
2022/03/29 03:28:34;;;;;;;;;;;;;;;4.62;80.70;99834.09;5053893;28;866;-58
2022/03/29 03:31:01;;;;;;;;;;;;;;;4.75;80.61;99834.72;5053776;28;830;-58
2022/03/29 03:33:28;;;;;;;;;;;;;;;4.85;79.96;99823.19;5053753;28;814;-58
2022/03/29 03:35:54;;;;;;;;;;;;;;;4.87;79.90;99834.56;5053708;28;806;-58
2022/03/29 03:38:22;;;;;;;;;;;;;;;4.89;79.88;99837.75;5053734;28;1039;-58
2022/03/29 03:40:49;;;;;;;;;;;;;;;4.86;79.87;99844.72;5052329;28;971;-58
2022/03/29 03:43:15;;;;;;;;;;;;;;;4.88;79.78;99844.34;5053584;28;1946;-58
2022/03/29 03:45:42;;;;;;;;;;;;;;;4.91;79.62;99844.44;5053784;28;874;-57
2022/03/29 03:48:08;;;;;;;;;;;;;;;4.83;79.66;99845.44;5053578;28;851;-58
2022/03/29 03:50:35;;;;;;;;;;;;;;;4.73;79.80;99845.25;5053667;28;886;-58
2022/03/29 03:53:01;;;;;;;;;;;;;;;4.64;80.07;99856.44;5053568;28;845;-58
2022/03/29 03:55:28;;;;;;;;;;;;;;;4.57;80.24;99848.88;5053975;28;846;-58
2022/03/29 03:57:55;;;;;;;;;;;;;;;4.49;80.77;99841.66;5053295;28;941;-58
2022/03/29 04:00:23;;;;;;;;;;;;;;;4.42;81.04;99836.06;5053821;28;795;-58
2022/03/29 04:02:50;;;;;;;;;;;;;;;4.45;81.24;99836.09;5053188;28;1958;-58
2022/03/29 04:05:17;;;;;;;;;;;;;;;4.44;81.14;99831.00;5052139;28;890;-58
2022/03/29 04:07:43;;;;;;;;;;;;;;;4.47;81.18;99824.81;5053220;28;873;-58
2022/03/29 04:10:10;;;;;;;;;;;;;;;4.48;81.02;99829.94;5053356;28;876;-58
2022/03/29 04:12:36;;;;;;;;;;;;;;;4.44;80.90;99826.31;5053168;28;818;-58
2022/03/29 04:15:03;;;;;;;;;;;;;;;4.49;81.17;99823.28;5053131;28;926;-58
2022/03/29 04:17:31;;;;;;;;;;;;;;;4.55;81.25;99821.06;5051752;28;850;-58
2022/03/29 04:19:59;;;;;;;;;;;;;;;4.66;81.06;99818.53;5052985;28;850;-58
2022/03/29 04:22:26;;;;;;;;;;;;;;;4.70;80.94;99817.44;5052871;28;1959;-58
2022/03/29 04:24:53;;;;;;;;;;;;;;;4.76;80.59;99811.66;5034897;28;1648;-58
2022/03/29 04:27:20;;;;;;;;;;;;;;;4.82;80.63;99812.94;5052954;28;799;-58
2022/03/29 04:29:46;;;;;;;;;;;;;;;4.91;80.31;99808.84;5052783;28;938;-58
2022/03/29 04:32:14;;;;;;;;;;;;;;;4.96;79.84;99807.72;5053033;28;818;-58
2022/03/29 04:34:40;;;;;;;;;;;;;;;4.97;79.96;99808.53;5052930;28;867;-58
2022/03/29 04:37:07;;;;;;;;;;;;;;;4.95;79.67;99806.16;5052768;28;857;-58
2022/03/29 04:39:34;;;;;;;;;;;;;;;4.91;79.85;99817.03;5034762;28;862;-58
2022/03/29 04:42:00;;;;;;;;;;;;;;;4.87;79.54;99809.94;5051788;28;1973;-58
2022/03/29 04:44:26;;;;;;;;;;;;;;;4.86;79.97;99806.38;5052319;28;803;-58
2022/03/29 04:46:53;;;;;;;;;;;;;;;4.95;80.04;99814.38;5052365;28;802;-58
2022/03/29 04:49:19;;;;;;;;;;;;;;;5.15;80.13;99815.13;5052134;28;803;-58
2022/03/29 04:51:45;;;;;;;;;;;;;;;5.34;79.03;99819.75;5052208;28;791;-57
2022/03/29 04:54:12;;;;;;;;;;;;;;;5.49;78.81;99821.53;5052257;28;818;-58
2022/03/29 04:56:38;;;;;;;;;;;;;;;5.64;78.04;99821.78;5052145;28;834;-57
2022/03/29 04:59:05;;;;;;;;;;;;;;;5.81;77.38;99826.72;5052049;28;967;-58
2022/03/29 05:01:32;;;;;;;;;;;;;;;5.88;77.18;99831.53;5052087;28;912;-57
2022/03/29 05:03:59;;;;;;;;;;;;;;;6.00;76.50;99828.59;5051885;28;1886;-57
2022/03/29 05:06:25;;;;;;;;;;;;;;;6.10;75.58;99816.97;5051885;28;806;-58
2022/03/29 05:08:52;;;;;;;;;;;;;;;6.28;75.53;99825.44;5052051;28;889;-57
2022/03/29 05:11:19;;;;;;;;;;;;;;;6.53;74.24;99819.47;5051875;28;1067;-57
2022/03/29 05:13:46;;;;;;;;;;;;;;;6.78;74.19;99827.97;5051873;28;822;-57
2022/03/29 05:16:13;;;;;;;;;;;;;;;6.97;72.88;99815.22;5051603;28;934;-57
2022/03/29 05:18:39;;;;;;;;;;;;;;;7.01;72.59;99808.59;5051725;28;874;-57
2022/03/29 05:21:08;;;;;;;;;;;;;;;7.12;71.85;99808.69;5051710;28;810;-57
2022/03/29 05:23:34;;;;;;;;;;;;;;;7.20;71.81;99817.78;5051784;28;1886;-56
2022/03/29 05:26:00;;;;;;;;;;;;;;;7.32;71.26;99806.50;5033547;28;1414;-57
2022/03/29 05:28:27;;;;;;;;;;;;;;;7.59;70.98;99814.56;5051529;28;949;-58
2022/03/29 05:30:53;;;;;;;;;;;;;;;7.89;69.97;99808.88;5051618;28;889;-58
2022/03/29 05:33:19;;;;;;;;;;;;;;;7.84;69.83;99803.75;5051854;28;893;-58
2022/03/29 05:35:46;;;;;;;;;;;;;;;7.65;70.22;99807.53;5051781;28;862;-58
2022/03/29 05:38:12;;;;;;;;;;;;;;;7.69;70.60;99800.88;5051437;28;851;-57
2022/03/29 05:40:39;;;;;;;;;;;;;;;7.74;70.33;99800.50;5051438;28;973;-58
2022/03/29 05:43:10;;;;;;;;;;;;;;;8.00;69.97;99801.47;5051205;28;2057;-58
2022/03/29 05:45:37;;;;;;;;;;;;;;;8.42;69.07;99797.34;5051387;28;993;-58
2022/03/29 05:50:50;;;;;;;;;;;;;;;9.06;66.41;99802.22;5051450;28;684;-58
2022/03/29 05:53:17;;;;;;;;;;;;;;;9.45;66.14;99797.91;5051422;28;913;-58
2022/03/29 05:55:45;;;;;;;;;;;;;;;9.94;64.61;99796.28;5055470;28;870;-58
2022/03/29 05:58:15;;;;;;;;;;;;;;;10.10;63.58;99796.63;5055432;28;859;-58
2022/03/29 06:00:43;;;;;;;;;;;;;;;10.26;63.12;99789.84;5055353;28;882;-58
2022/03/29 06:03:10;;;;;;;;;;;;;;;10.44;62.48;99795.34;5055238;28;1968;-58
2022/03/29 06:05:41;;;;;;;;;;;;;;;10.83;62.07;99801.44;5055192;28;855;-58
2022/03/29 06:08:08;;;;;;;;;;;;;;;11.30;60.42;99803.91;5055676;28;886;-58
2022/03/29 06:10:35;;;;;;;;;;;;;;;11.83;60.00;99799.84;5055456;28;795;-58
2022/03/29 06:13:02;;;;;;;;;;;;;;;11.80;59.20;99813.75;5055749;28;930;-58
2022/03/29 06:15:28;;;;;;;;;;;;;;;11.82;59.77;99814.91;5055389;28;882;-58
2022/03/29 06:17:55;;;;;;;;;;;;;;;12.54;58.65;99802.25;5056102;28;763;-58
2022/03/29 06:20:22;;;;;;;;;;;;;;;12.96;57.35;99800.88;5055365;28;803;-58
2022/03/29 06:22:48;;;;;;;;;;;;;;;13.40;57.51;99807.38;5055066;28;1937;-58
2022/03/29 06:25:15;;;;;;;;;;;;;;;13.37;55.29;99793.56;5054896;28;1252;-58
2022/03/29 06:27:42;;;;;;;;;;;;;;;13.55;55.65;99801.56;5054988;28;870;-58
2022/03/29 06:30:09;;;;;;;;;;;;;;;13.66;55.26;99794.63;5054953;28;846;-58
2022/03/29 06:32:56;;;;;;;;;;;;;;;13.54;55.89;99794.47;5054768;28;907;-58
2022/03/29 06:35:24;;;;;;;;;;;;;;;13.37;55.78;99794.31;5054615;28;2707;-58
2022/03/29 06:37:55;;;;;;;;;;;;;;;12.94;56.40;99792.19;5054708;28;827;-58
2022/03/29 06:40:23;;;;;;;;;;;;;;;13.00;57.27;99796.06;5054777;28;873;-58
2022/03/29 06:42:50;;;;;;;;;;;;;;;13.01;56.97;99794.84;5054667;28;1921;-58
2022/03/29 06:45:17;;;;;;;;;;;;;;;13.05;57.40;99794.81;5054872;28;798;-58
2022/03/29 06:47:44;;;;;;;;;;;;;;;13.01;57.81;99780.19;5054682;28;783;-58
2022/03/29 06:50:12;;;;;;;;;;;;;;;13.05;57.04;99781.72;5054544;28;917;-58
2022/03/29 06:52:39;;;;;;;;;;;;;;;12.97;56.57;99780.28;5054407;28;854;-58
2022/03/29 06:55:08;;;;;;;;;;;;;;;12.87;57.47;99767.34;5053407;28;826;-57
2022/03/29 06:57:35;;;;;;;;;;;;;;;12.82;57.18;99767.78;5036434;28;2053;-57
2022/03/29 07:00:03;;;;;;;;;;;;;;;12.80;58.66;99771.00;5054499;28;901;-58
2022/03/29 07:02:29;;;;;;;;;;;;;;;12.83;58.26;99764.63;5054222;28;1961;-57
2022/03/29 07:04:56;;;;;;;;;;;;;;;12.97;58.67;99762.81;5053764;28;846;-57
2022/03/29 07:07:22;;;;;;;;;;;;;;;13.31;57.02;99771.03;5054185;28;900;-58
2022/03/29 07:12:45;;;;;;;;;;;;;;;13.53;55.74;99754.81;5054289;28;656;-58
2022/03/29 07:15:11;;;;;;;;;;;;;;;13.77;55.82;99752.00;5054128;28;893;-56
2022/03/29 07:17:37;;;;;;;;;;;;;;;14.05;54.34;99751.44;5054056;28;791;-56
2022/03/29 07:20:04;;;;;;;;;;;;;;;14.05;54.84;99750.66;5054057;28;837;-56
2022/03/29 07:22:30;;;;;;;;;;;;;;;14.02;54.57;99751.53;5053990;28;1985;-56
2022/03/29 07:24:57;;;;;;;;;;;;;;;13.93;54.86;99748.50;5053751;28;1191;-56
2022/03/29 07:27:24;;;;;;;;;;;;;;;14.12;54.50;99750.50;5053908;28;803;-56
2022/03/29 07:29:52;;;;;;;;;;;;;;;14.48;53.96;99749.75;5053893;28;826;-56
2022/03/29 07:32:21;;;;;;;;;;;;;;;14.56;53.76;99751.22;5053695;28;890;-56
2022/03/29 07:34:47;;;;;;;;;;;;;;;14.53;52.79;99754.84;5053689;28;855;-56
2022/03/29 07:37:14;;;;;;;;;;;;;;;14.53;53.14;99756.81;5053651;28;870;-56
2022/03/29 07:39:41;;;;;;;;;;;;;;;14.31;53.82;99760.06;5053683;28;857;-56
2022/03/29 07:42:08;;;;;;;;;;;;;;;14.18;53.63;99753.56;5053425;28;1977;-56
2022/03/29 07:44:34;;;;;;;;;;;;;;;14.04;54.00;99751.88;5053409;28;841;-56
2022/03/29 07:47:01;;;;;;;;;;;;;;;14.16;53.68;99751.22;5053552;28;835;-56
2022/03/29 07:49:29;;;;;;;;;;;;;;;14.37;53.35;99744.44;5053605;28;823;-56
2022/03/29 07:51:58;;;;;;;;;;;;;;;14.62;52.40;99740.38;5053319;28;965;-56
2022/03/29 07:54:25;;;;;;;;;;;;;;;14.67;52.04;99742.63;5053374;28;874;-56
2022/03/29 07:56:51;;;;;;;;;;;;;;;14.81;54.63;99756.22;5053330;28;798;-56
2022/03/29 07:59:17;;;;;;;;;;;;;;;14.88;52.31;99749.69;5053255;28;783;-56
2022/03/29 08:01:44;;;;;;;;;;;;;;;14.74;52.61;99750.78;5053327;28;865;-56
2022/03/29 08:04:11;;;;;;;;;;;;;;;14.38;53.21;99748.78;5053010;28;1969;-56
2022/03/29 08:06:37;;;;;;;;;;;;;;;14.45;53.09;99756.19;5053053;28;834;-56
2022/03/29 08:09:04;;;;;;;;;;;;;;;14.48;52.59;99741.41;5053092;28;858;-56
2022/03/29 08:11:30;;;;;;;;;;;;;;;14.43;52.71;99739.94;5035165;28;1222;-56
2022/03/29 08:13:57;;;;;;;;;;;;;;;14.24;54.23;99732.41;5053004;28;791;-56
2022/03/29 08:16:24;;;;;;;;;;;;;;;14.16;53.73;99728.97;5052064;28;838;-56
2022/03/29 08:18:51;;;;;;;;;;;;;;;13.94;54.59;99725.88;5052782;28;942;-56
2022/03/29 08:24:03;;;;;;;;;;;;;;;14.60;53.26;99712.97;5052910;28;1951;-56
2022/03/29 08:26:30;;;;;;;;;;;;;;;15.06;52.38;99711.09;5052523;28;1258;-56
2022/03/29 08:28:57;;;;;;;;;;;;;;;15.28;51.37;99705.78;5052800;28;862;-56
2022/03/29 08:31:23;;;;;;;;;;;;;;;15.54;51.10;99697.53;5052520;28;846;-56
2022/03/29 08:33:50;;;;;;;;;;;;;;;15.90;50.33;99693.81;5052612;28;889;-56
2022/03/29 08:36:17;;;;;;;;;;;;;;;15.69;51.24;99678.44;5052534;28;870;-56
2022/03/29 08:38:44;;;;;;;;;;;;;;;15.51;51.01;99695.63;5052564;28;827;-56
2022/03/29 08:41:10;;;;;;;;;;;;;;;15.75;52.16;99678.72;5052288;28;953;-56
2022/03/29 08:43:37;;;;;;;;;;;;;;;16.04;49.95;99671.06;5052385;28;1910;-56
2022/03/29 08:46:03;;;;;;;;;;;;;;;15.99;51.24;99676.44;5052500;28;870;-56
2022/03/29 08:48:30;;;;;;;;;;;;;;;16.28;50.65;99662.41;5052356;28;855;-56
2022/03/29 08:50:58;;;;;;;;;;;;;;;16.67;51.62;99663.19;5052311;28;870;-56
2022/03/29 08:53:28;;;;;;;;;;;;;;;16.78;49.17;99663.63;5052111;28;1082;-56
2022/03/29 08:55:54;;;;;;;;;;;;;;;16.83;50.23;99656.72;5052405;28;890;-56
2022/03/29 08:58:22;;;;;;;;;;;;;;;17.35;49.32;99652.59;5052115;28;962;-56
2022/03/29 09:00:53;;;;;;;;;;;;;;;17.21;48.48;99653.84;5052093;28;818;-56
2022/03/29 09:03:19;;;;;;;;;;;;;;;16.93;48.61;99650.00;5051842;28;1943;-56
2022/03/29 09:05:48;;;;;;;;;;;;;;;17.26;49.65;99647.69;5051904;28;862;-56
2022/03/29 09:08:16;;;;;;;;;;;;;;;17.24;48.38;99644.56;5051781;28;1164;-56
2022/03/29 09:10:44;;;;;;;;;;;;;;;17.10;48.55;99647.84;5051966;28;842;-56
2022/03/29 09:13:17;;;;;;;;;;;;;;;17.05;48.37;99645.66;5051865;28;810;-56
2022/03/29 09:15:43;;;;;;;;;;;;;;;16.84;47.66;99644.34;5051908;28;1244;-56
2022/03/29 09:18:11;;;;;;;;;;;;;;;16.55;48.52;99639.66;5052536;28;771;-56
2022/03/29 09:20:39;;;;;;;;;;;;;;;16.60;47.64;99649.47;5051936;28;972;-56
2022/03/29 09:23:12;;;;;;;;;;;;;;;16.84;49.28;99642.34;5051960;28;1984;-56
2022/03/29 09:25:47;;;;;;;;;;;;;;;17.58;48.19;99637.41;5050293;28;1321;-56
2022/03/29 09:28:15;;;;;;;;;;;;;;;17.74;45.27;99630.81;5051431;28;890;-56
2022/03/29 09:30:48;;;;;;;;;;;;;;;17.90;44.77;99619.47;5051562;28;806;-56
2022/03/29 09:33:16;;;;;;;;;;;;;;;17.67;44.85;99615.09;5052172;28;866;-56
2022/03/29 09:35:57;;;;;;;;;;;;;;;17.04;46.71;99622.50;5051395;28;931;-56
2022/03/29 09:38:27;;;;;;;;;;;;;;;16.75;47.11;99611.50;5051539;28;826;-56
2022/03/29 09:40:55;;;;;;;;;;;;;;;16.68;47.17;99609.72;5051644;28;850;-56
2022/03/29 09:43:22;;;;;;;;;;;;;;;17.00;47.58;99615.50;5051466;28;1914;-56
2022/03/29 09:45:50;;;;;;;;;;;;;;;17.66;45.98;99590.41;5051796;28;771;-56
2022/03/29 09:48:26;;;;;;;;;;;;;;;17.81;45.07;99596.22;5051602;28;826;-56
2022/03/29 09:50:56;;;;;;;;;;;;;;;17.92;46.08;99591.84;5051309;28;943;-56
2022/03/29 09:53:41;;;;;;;;;;;;;;;18.15;45.44;99595.34;5051456;28;886;-56
2022/03/29 09:56:10;;;;;;;;;;;;;;;18.38;44.67;99598.84;5051397;28;878;-56
2022/03/29 10:24:28;;;;;;;;;;;;;;;18.53;42.62;99558.63;5722585;22;1646;-59
2022/03/29 10:26:57;;;;;;;;;;;;;;;18.79;41.67;99554.81;5071322;28;817;-60
2022/03/29 10:29:23;;;;;;;;;;;;;;;18.94;40.25;99553.72;5071350;28;840;-59
2022/03/29 10:31:52;;;;;;;;;;;;;;;19.10;40.22;99549.06;5071211;28;914;-59
2022/03/29 10:34:25;;;;;;;;;;;;;;;19.42;38.33;99535.66;5071360;28;853;-59
2022/03/29 10:37:03;;;;;;;;;;;;;;;19.70;37.74;99528.75;5071170;28;817;-59
2022/03/29 10:39:43;;;;;;;;;;;;;;;19.84;36.72;99521.69;5071092;28;932;-59
2022/03/29 10:42:29;;;;;;;;;;;;;;;20.06;37.11;99515.06;5074590;28;1909;-59
2022/03/29 10:45:16;;;;;;;;;;;;;;;20.17;37.29;99506.91;5074640;28;770;-59
2022/03/29 10:47:44;;;;;;;;;;;;;;;20.35;35.73;99501.16;5060664;28;1936;-59
2022/03/29 10:50:12;;;;;;;;;;;;;;;20.10;36.91;99496.81;5074522;28;949;-59
2022/03/29 10:52:38;;;;;;;;;;;;;;;19.71;35.12;99490.28;5074527;28;842;-60
2022/03/29 10:55:19;;;;;;;;;;;;;;;19.50;36.46;99487.22;5074281;28;850;-59
2022/03/29 10:58:13;;;;;;;;;;;;;;;19.61;37.12;99488.72;5074618;28;778;-60
2022/03/29 11:00:41;;;;;;;;;;;;;;;19.69;37.77;99493.50;5070880;28;1848;-59
2022/03/29 11:03:12;;;;;;;;;;;;;;;19.85;35.38;99474.81;5074264;28;1952;-60
2022/03/29 11:05:57;;;;;;;;;;;;;;;20.12;35.08;99483.09;5074601;28;810;-60
2022/03/29 11:08:24;;;;;;;;;;;;;;;20.15;34.54;99476.50;5074299;28;872;-59
2022/03/29 11:10:49;;;;;;;;;;;;;;;20.23;35.33;99474.13;5074137;28;890;-59
2022/03/29 11:13:30;;;;;;;;;;;;;;;20.23;34.84;99474.13;5056241;28;2145;-59
2022/03/29 11:16:01;;;;;;;;;;;;;;;20.24;35.30;99456.03;5074143;28;910;-59
2022/03/29 11:18:33;;;;;;;;;;;;;;;20.43;33.63;99459.50;5073945;28;866;-60
2022/03/29 11:21:03;;;;;;;;;;;;;;;20.27;33.35;99449.47;5074080;28;818;-59
2022/03/29 11:23:31;;;;;;;;;;;;;;;20.17;35.04;99451.56;5073749;28;1947;-59
2022/03/29 11:26:03;;;;;;;;;;;;;;;20.29;34.05;99461.00;5073807;28;1304;-59
2022/03/29 11:28:31;;;;;;;;;;;;;;;20.13;34.74;99447.38;5073868;28;814;-59
2022/03/29 11:30:58;;;;;;;;;;;;;;;19.76;35.92;99439.19;5074440;28;831;-59
2022/03/29 11:33:31;;;;;;;;;;;;;;;19.79;37.11;99438.22;5073978;28;908;-60
2022/03/29 11:35:58;;;;;;;;;;;;;;;19.70;35.68;99422.22;5073721;28;897;-59
2022/03/29 11:38:25;;;;;;;;;;;;;;;19.79;35.39;99433.38;5055759;28;1327;-59
2022/03/29 11:40:52;;;;;;;;;;;;;;;19.95;36.26;99437.81;5073685;28;814;-60
2022/03/29 11:43:27;;;;;;;;;;;;;;;20.23;35.86;99425.63;5055540;28;1973;-60
2022/03/29 11:45:55;;;;;;;;;;;;;;;20.33;37.02;99427.13;5073687;28;806;-60
2022/03/29 11:48:24;;;;;;;;;;;;;;;20.55;35.09;99416.38;5073522;28;854;-59
2022/03/29 11:50:57;;;;;;;;;;;;;;;20.27;34.37;99418.63;5072798;28;893;-59
2022/03/29 11:53:27;;;;;;;;;;;;;;;20.02;35.87;99414.25;5073063;28;782;-60
2022/03/29 11:56:09;;;;;;;;;;;;;;;19.92;32.99;99413.53;5073359;28;814;-59
2022/03/29 11:58:43;;;;;;;;;;;;;;;19.99;34.62;99412.38;5073588;28;862;-60
2022/03/29 12:01:17;;;;;;;;;;;;;;;20.15;33.93;99417.59;5073317;28;806;-60
2022/03/29 12:03:45;;;;;;;;;;;;;;;20.34;33.64;99407.00;5073156;28;1890;-60
2022/03/29 12:06:15;;;;;;;;;;;;;;;20.39;34.11;99397.16;5073370;28;846;-59
2022/03/29 12:08:45;;;;;;;;;;;;;;;20.14;34.79;99404.03;5073177;28;865;-60
2022/03/29 12:11:12;;;;;;;;;;;;;;;20.03;34.79;99407.38;5073017;28;796;-59
2022/03/29 12:13:39;;;;;;;;;;;;;;;19.93;35.63;99405.91;5072908;28;854;-60
2022/03/29 12:16:35;;;;;;;;;;;;;;;19.82;35.46;99409.22;5073030;28;798;-59
2022/03/29 12:19:05;;;;;;;;;;;;;;;19.62;36.20;99409.00;5055785;28;1694;-60
2022/03/29 12:21:32;;;;;;;;;;;;;;;19.72;36.15;99400.09;5072773;28;921;-60
2022/03/29 12:24:00;;;;;;;;;;;;;;;19.78;37.17;99400.22;5072742;28;1890;-59
2022/03/29 12:26:28;;;;;;;;;;;;;;;19.77;37.22;99402.22;5072595;28;1267;-60
2022/03/29 12:28:55;;;;;;;;;;;;;;;19.69;36.85;99400.22;5072757;28;809;-59
2022/03/29 12:31:24;;;;;;;;;;;;;;;19.64;37.53;99396.03;5072766;28;912;-59
2022/03/29 12:33:52;;;;;;;;;;;;;;;19.60;35.11;99389.84;5072504;28;934;-59
2022/03/29 12:36:19;;;;;;;;;;;;;;;19.63;34.52;99383.28;5072420;28;941;-59
2022/03/29 12:38:46;;;;;;;;;;;;;;;19.90;34.88;99381.59;5072518;28;838;-59
2022/03/29 12:41:13;;;;;;;;;;;;;;;20.23;35.25;99381.53;5072449;28;856;-60
2022/03/29 12:43:41;;;;;;;;;;;;;;;20.21;32.28;99378.44;5054503;28;1973;-59
2022/03/29 12:46:09;;;;;;;;;;;;;;;20.12;32.83;99372.88;5072306;28;965;-60
2022/03/29 12:48:37;;;;;;;;;;;;;;;20.04;31.58;99380.13;5072306;28;996;-60
2022/03/29 12:51:06;;;;;;;;;;;;;;;20.02;31.98;99363.75;5072309;28;925;-59
2022/03/29 12:53:33;;;;;;;;;;;;;;;19.91;31.88;99361.50;5072392;28;896;-60
2022/03/29 12:56:04;;;;;;;;;;;;;;;19.95;32.44;99370.50;5072102;28;937;-60
2022/03/29 12:58:35;;;;;;;;;;;;;;;19.98;33.11;99354.75;5072037;28;950;-59
2022/03/29 13:01:02;;;;;;;;;;;;;;;20.06;33.37;99357.97;5072050;28;887;-60
2022/03/29 13:03:36;;;;;;;;;;;;;;;20.24;33.96;99354.25;5071590;28;1882;-60
2022/03/29 13:06:05;;;;;;;;;;;;;;;;;;5071956;28;929;-59
2022/03/29 13:08:32;;;;;;;;;;;;;;;20.51;33.68;99342.78;5072320;28;834;-60
2022/03/29 13:11:15;;;;;;;;;;;;;;;20.78;32.89;99332.56;5071947;28;865;-60
2022/03/29 13:13:42;;;;;;;;;;;;;;;20.58;33.26;99336.81;5071893;28;853;-60
2022/03/29 13:16:18;;;;;;;;;;;;;;;20.53;32.76;99333.88;5071993;28;798;-60
2022/03/29 13:18:49;;;;;;;;;;;;;;;20.48;32.56;99332.50;5071842;28;880;-60
2022/03/29 13:21:16;;;;;;;;;;;;;;;20.31;32.43;99325.81;5071622;28;857;-60
2022/03/29 13:23:45;;;;;;;;;;;;;;;20.27;32.63;99323.22;5053745;28;1882;-60
2022/03/29 13:26:12;;;;;;;;;;;;;;;20.40;32.52;99318.09;5071439;28;1402;-60
2022/03/29 13:28:39;;;;;;;;;;;;;;;20.37;32.86;99316.22;5071688;28;858;-60
2022/03/29 13:31:07;;;;;;;;;;;;;;;20.39;32.49;99322.13;5071560;28;899;-60
2022/03/29 13:33:34;;;;;;;;;;;;;;;20.44;32.01;99317.13;5071669;28;876;-60
2022/03/29 13:36:10;;;;;;;;;;;;;;;20.38;33.20;99311.41;5071650;28;905;-60
2022/03/29 13:38:37;;;;;;;;;;;;;;;20.50;32.22;99292.72;5071601;28;937;-60
2022/03/29 13:41:03;;;;;;;;;;;;;;;20.34;31.65;99294.00;5071569;28;794;-60
2022/03/29 13:43:33;;;;;;;;;;;;;;;20.42;31.63;99294.38;5071464;28;1945;-60
2022/03/29 13:46:00;;;;;;;;;;;;;;;20.44;31.43;99297.47;5071372;28;871;-60
2022/03/29 13:48:29;;;;;;;;;;;;;;;20.34;31.81;99282.75;5071670;28;786;-60
2022/03/29 13:50:57;;;;;;;;;;;;;;;20.24;31.91;99284.88;5071332;28;932;-60
2022/03/29 13:53:23;;;;;;;;;;;;;;;20.02;32.01;99290.84;5071224;28;949;-60